Time;durP1;ratioP1;P1;durP2;ratioP2;P2;SDS_P1;SDS_P2;PMS_P1;PMS_P2;Temp;Humidity;BMP_temperature;BMP_pressure;BME280_temperature;BME280_humidity;BME280_pressure;Samples;Min_cycle;Max_cycle;Signal;HPM_P1;HPM_P2
2023/03/12 00:02:00;;;;;;;8.88;2.83;;;4.30;90.80;;;;;;5013487;28;20413;-70
2023/03/12 00:04:27;;;;;;;6.65;2.72;;;4.30;90.80;;;;;;5013445;28;20438;-69
2023/03/12 00:06:53;;;;;;;10.65;2.10;;;4.20;91.00;;;;;;5013398;28;20049;-69
2023/03/12 00:09:19;;;;;;;5.80;2.10;;;4.20;90.90;;;;;;5013372;28;20372;-70
2023/03/12 00:11:44;;;;;;;4.88;2.05;;;4.30;91.00;;;;;;5012745;28;20018;-70
2023/03/12 00:14:10;;;;;;;5.70;1.95;;;4.20;90.90;;;;;;5013559;28;20412;-70
2023/03/12 00:16:36;;;;;;;6.43;1.98;;;4.30;90.90;;;;;;5013174;28;20045;-70
2023/03/12 00:19:02;;;;;;;6.38;1.73;;;4.20;90.80;;;;;;5013171;28;20077;-69
2023/03/12 00:21:27;;;;;;;14.05;4.78;;;4.30;90.80;;;;;;5013252;28;20061;-70
2023/03/12 00:23:53;;;;;;;8.82;1.88;;;4.30;90.70;;;;;;5013405;28;20127;-70
2023/03/12 00:26:20;;;;;;;8.70;2.75;;;4.20;90.70;;;;;;5012891;28;20456;-70
2023/03/12 00:28:48;;;;;;;6.25;1.98;;;4.20;90.70;;;;;;5011951;28;20030;-70
2023/03/12 00:31:20;;;;;;;5.93;2.53;;;4.20;90.70;;;;;;5012173;28;20402;-70
2023/03/12 00:33:48;;;;;;;3.03;2.15;;;4.20;90.80;;;;;;5013058;28;20041;-70
2023/03/12 00:36:13;;;;;;;;;;;4.20;90.80;;;;;;5013353;28;20056;-71
2023/03/12 00:38:39;;;;;;;5.63;1.92;;;4.20;90.90;;;;;;5013302;28;19901;-70
2023/03/12 00:41:04;;;;;;;30.20;10.98;;;4.10;90.90;;;;;;5012735;28;20038;-70
2023/03/12 00:43:30;;;;;;;17.45;6.68;;;4.20;91.00;;;;;;5012804;28;20033;-70
2023/03/12 00:45:56;;;;;;;7.93;2.33;;;4.10;91.10;;;;;;5011626;28;20104;-70
2023/03/12 00:48:22;;;;;;;5.35;2.03;;;4.10;91.10;;;;;;5012736;28;20025;-71
2023/03/12 00:50:47;;;;;;;5.00;2.08;;;4.00;91.10;;;;;;5013437;28;20026;-70
2023/03/12 00:53:13;;;;;;;3.88;1.95;;;4.10;91.10;;;;;;5012753;28;20299;-70
2023/03/12 00:55:38;;;;;;;8.45;2.22;;;4.10;91.10;;;;;;5012413;28;20042;-70
2023/03/12 00:58:04;;;;;;;4.22;1.92;;;4.10;91.00;;;;;;5011385;28;20034;-69
2023/03/12 01:00:30;;;;;;;8.10;2.72;;;4.10;91.00;;;;;;5012427;28;20022;-69
2023/03/12 01:02:56;;;;;;;4.43;1.88;;;4.30;91.10;;;;;;5012773;28;20072;-70
2023/03/12 01:05:22;;;;;;;4.30;1.90;;;4.10;91.00;;;;;;5011238;28;20405;-70
2023/03/12 01:07:47;;;;;;;4.90;1.60;;;4.00;91.00;;;;;;5012333;28;20030;-70
2023/03/12 01:10:15;;;;;;;6.22;2.22;;;4.00;91.00;;;;;;5012037;28;20037;-71
2023/03/12 01:12:41;;;;;;;4.63;1.88;;;4.10;91.30;;;;;;5011005;28;20408;-69
2023/03/12 01:15:08;;;;;;;5.55;2.00;;;4.00;91.00;;;;;;5011902;28;20045;-69
2023/03/12 01:17:34;;;;;;;5.60;2.28;;;4.10;91.00;;;;;;5012364;28;20030;-70
2023/03/12 01:19:59;;;;;;;9.93;1.75;;;4.10;91.00;;;;;;5011912;28;20330;-69
2023/03/12 01:22:25;;;;;;;7.50;2.33;;;4.10;91.20;;;;;;5011806;28;20022;-70
2023/03/12 01:24:51;;;;;;;7.38;2.53;;;4.10;90.90;;;;;;5011843;28;20022;-70
2023/03/12 01:27:16;;;;;;;8.13;2.90;;;4.10;90.90;;;;;;5011754;28;20038;-71
2023/03/12 01:29:42;;;;;;;7.28;3.97;;;4.10;91.00;;;;;;5010865;28;20499;-70
2023/03/12 01:32:08;;;;;;;7.85;2.22;;;4.10;91.00;;;;;;5011738;28;20066;-70
2023/03/12 01:34:34;;;;;;;11.52;2.90;;;4.10;91.10;;;;;;5011697;28;20541;-69
2023/03/12 01:37:01;;;;;;;5.53;2.10;;;4.00;91.10;;;;;;5011605;28;20495;-69
2023/03/12 01:39:27;;;;;;;6.60;2.75;;;4.00;91.10;;;;;;5011631;28;20038;-69
2023/03/12 01:41:52;;;;;;;9.25;1.85;;;4.00;91.10;;;;;;5011871;28;20485;-70
2023/03/12 01:44:18;;;;;;;8.23;2.80;;;4.00;91.20;;;;;;5011339;28;20037;-70
2023/03/12 01:46:47;;;;;;;6.55;2.63;;;4.00;91.30;;;;;;5011576;28;20040;-70
2023/03/12 01:49:15;;;;;;;6.20;2.05;;;4.00;91.30;;;;;;5011433;28;20076;-70
2023/03/12 01:51:41;;;;;;;;;;;3.90;91.40;;;;;;5011957;28;20040;-70
2023/03/12 01:54:20;;;;;;;4.38;1.80;;;3.90;91.70;;;;;;5011398;28;20352;-69
2023/03/12 01:56:47;;;;;;;7.63;1.70;;;3.70;91.80;;;;;;5011525;28;20029;-70
2023/03/12 01:59:21;;;;;;;3.72;1.65;;;3.60;92.00;;;;;;5011453;28;20467;-69
2023/03/12 02:01:48;;;;;;;4.20;1.67;;;3.60;92.10;;;;;;5011384;28;20089;-71
2023/03/12 02:04:16;;;;;;;5.88;1.75;;;3.60;92.10;;;;;;5011377;28;20125;-70
2023/03/12 02:07:05;;;;;;;10.30;1.95;;;3.60;92.00;;;;;;5011152;28;20034;-70
2023/03/12 02:09:38;;;;;;;190.38;76.28;;;3.60;92.00;;;;;;5011033;28;20105;-72
2023/03/12 02:12:05;;;;;;;25.90;11.38;;;3.60;92.00;;;;;;5011135;28;20036;-72
2023/03/12 02:14:31;;;;;;;6.82;2.60;;;3.60;92.00;;;;;;5011348;28;20046;-71
2023/03/12 02:16:57;;;;;;;10.85;2.15;;;3.70;91.80;;;;;;5011120;28;20054;-71
2023/03/12 02:19:29;;;;;;;15.95;2.28;;;3.60;92.00;;;;;;5010946;28;20030;-71
2023/03/12 02:21:55;;;;;;;3.05;1.65;;;3.70;91.80;;;;;;5010882;28;20026;-71
2023/03/12 02:24:31;;;;;;;11.40;3.00;;;3.70;91.70;;;;;;5011064;28;20026;-72
2023/03/12 02:26:58;;;;;;;6.90;2.08;;;3.70;91.70;;;;;;5010184;28;20026;-72
2023/03/12 02:29:25;;;;;;;4.45;2.00;;;3.70;91.70;;;;;;5010842;28;20085;-70
2023/03/12 02:31:55;;;;;;;9.40;2.05;;;3.70;91.60;;;;;;5010741;28;20072;-71
2023/03/12 02:34:21;;;;;;;6.18;1.88;;;3.70;91.70;;;;;;5009519;28;20038;-71
2023/03/12 02:36:47;;;;;;;4.15;1.88;;;3.70;91.60;;;;;;5026490;28;20534;-71
2023/03/12 02:39:13;;;;;;;6.72;1.58;;;3.80;91.60;;;;;;5029400;28;20040;-71
2023/03/12 02:41:43;;;;;;;5.45;1.58;;;3.70;91.60;;;;;;5030659;28;20014;-71
2023/03/12 02:44:17;;;;;;;4.70;1.40;;;3.70;91.60;;;;;;5030450;28;20113;-71
2023/03/12 02:46:46;;;;;;;6.53;1.77;;;3.70;91.70;;;;;;5030514;28;20402;-71
2023/03/12 02:49:13;;;;;;;4.85;1.95;;;3.60;91.80;;;;;;5030151;28;20362;-71
2023/03/12 02:51:40;;;;;;;14.00;2.10;;;3.70;91.80;;;;;;5030204;28;20068;-71
2023/03/12 02:54:06;;;;;;;4.85;1.50;;;3.70;91.80;;;;;;5030730;28;20033;-71
2023/03/12 02:56:32;;;;;;;3.72;1.60;;;3.60;91.80;;;;;;5034890;28;20368;-70
2023/03/12 02:58:58;;;;;;;7.70;1.90;;;3.60;91.90;;;;;;5034322;28;20100;-72
2023/03/12 03:01:23;;;;;;;4.15;1.55;;;3.60;92.00;;;;;;5034141;28;20034;-70
2023/03/12 03:03:49;;;;;;;2.55;1.75;;;3.50;92.20;;;;;;5034220;28;20128;-71
2023/03/12 03:06:16;;;;;;;2.45;1.42;;;3.40;92.20;;;;;;5034144;28;20021;-71
2023/03/12 03:08:41;;;;;;;4.38;1.83;;;3.30;92.80;;;;;;5034527;28;20363;-70
2023/03/12 03:11:08;;;;;;;3.30;1.73;;;3.20;93.10;;;;;;5034071;28;20033;-71
2023/03/12 03:13:34;;;;;;;4.30;1.73;;;3.10;93.70;;;;;;5032904;28;20041;-71
2023/03/12 03:16:00;;;;;;;3.78;1.50;;;3.10;93.50;;;;;;5033967;28;20056;-70
2023/03/12 03:18:27;;;;;;;5.57;1.55;;;3.10;93.40;;;;;;5032844;28;20029;-69
2023/03/12 03:21:03;;;;;;;4.53;1.73;;;3.00;93.50;;;;;;5033364;28;20352;-71
2023/03/12 03:23:29;;;;;;;4.20;1.52;;;3.00;93.50;;;;;;5034053;28;20034;-70
2023/03/12 03:25:55;;;;;;;4.13;1.70;;;3.00;93.40;;;;;;5033768;28;20034;-70
2023/03/12 03:28:23;;;;;;;4.40;1.67;;;3.00;93.40;;;;;;5032722;28;20052;-70
2023/03/12 03:30:51;;;;;;;;;;;3.00;93.40;;;;;;5033164;28;20115;-70
2023/03/12 03:33:16;;;;;;;4.85;1.48;;;3.20;93.40;;;;;;5033858;28;19948;-71
2023/03/12 03:35:42;;;;;;;4.28;2.08;;;3.00;93.30;;;;;;5034115;28;20066;-70
2023/03/12 03:38:08;;;;;;;8.07;1.65;;;3.00;93.40;;;;;;5033548;28;20034;-71
2023/03/12 03:40:33;;;;;;;3.45;1.40;;;3.00;93.50;;;;;;5033602;28;20033;-71
2023/03/12 03:42:59;;;;;;;3.45;1.38;;;3.10;93.40;;;;;;5033607;28;20049;-71
2023/03/12 03:45:24;;;;;;;6.60;2.10;;;3.00;93.30;;;;;;5033450;28;20044;-71
2023/03/12 03:47:50;;;;;;;4.53;2.00;;;3.10;93.30;;;;;;5032891;28;20044;-71
2023/03/12 03:50:16;;;;;;;4.30;1.80;;;3.00;93.40;;;;;;5033456;28;20029;-71
2023/03/12 03:52:42;;;;;;;5.93;2.05;;;3.10;93.50;;;;;;5033480;28;20025;-71
2023/03/12 03:55:08;;;;;;;5.13;1.73;;;3.00;93.40;;;;;;5032398;28;20065;-71
2023/03/12 03:57:34;;;;;;;8.88;2.00;;;3.00;93.60;;;;;;5033222;28;20037;-71
2023/03/12 03:59:59;;;;;;;9.30;2.22;;;3.00;93.50;;;;;;5033235;28;20383;-70
2023/03/12 04:02:26;;;;;;;3.97;2.03;;;3.00;93.60;;;;;;5032494;28;20025;-71
2023/03/12 04:04:55;;;;;;;6.78;2.10;;;3.00;93.50;;;;;;5031548;28;20084;-70
2023/03/12 04:07:21;;;;;;;6.38;1.83;;;3.00;93.30;;;;;;5032804;28;20056;-71
2023/03/12 04:09:46;;;;;;;10.85;2.00;;;3.00;93.50;;;;;;5032994;28;20025;-71
2023/03/12 04:12:12;;;;;;;3.80;2.05;;;3.00;93.70;;;;;;5032878;28;20063;-71
2023/03/12 04:14:39;;;;;;;3.97;1.83;;;2.90;93.80;;;;;;5032283;28;20025;-71
2023/03/12 04:17:05;;;;;;;3.28;1.60;;;2.90;93.70;;;;;;5033084;28;20491;-71
2023/03/12 04:19:31;;;;;;;5.05;1.60;;;2.90;94.00;;;;;;5032729;28;20049;-71
2023/03/12 04:21:56;;;;;;;7.43;2.03;;;2.80;94.10;;;;;;5032895;28;20022;-71
2023/03/12 04:24:22;;;;;;;5.25;1.60;;;2.80;94.30;;;;;;5032656;28;20329;-72
2023/03/12 04:26:47;;;;;;;5.50;1.85;;;2.70;94.40;;;;;;5033090;28;20040;-72
2023/03/12 04:29:13;;;;;;;3.15;1.75;;;2.70;94.60;;;;;;5032660;28;20206;-72
2023/03/12 04:31:39;;;;;;;5.47;1.98;;;2.70;94.70;;;;;;5031575;28;20439;-72
2023/03/12 04:34:05;;;;;;;4.45;2.10;;;2.60;94.90;;;;;;5032543;28;20044;-71
2023/03/12 04:36:30;;;;;;;8.05;2.17;;;2.60;94.90;;;;;;5032436;28;20045;-71
2023/03/12 04:38:56;;;;;;;9.27;2.30;;;2.60;94.80;;;;;;5031740;28;20087;-72
2023/03/12 04:41:22;;;;;;;5.07;1.95;;;2.70;94.50;;;;;;5032379;28;20057;-71
2023/03/12 04:43:47;;;;;;;4.95;2.13;;;2.70;94.60;;;;;;5032383;28;20030;-71
2023/03/12 04:46:13;;;;;;;6.63;2.00;;;2.70;94.40;;;;;;5032410;28;20134;-71
2023/03/12 04:48:38;;;;;;;5.05;2.28;;;2.70;94.40;;;;;;5032297;28;20387;-71
2023/03/12 04:51:05;;;;;;;7.40;1.92;;;2.80;94.40;;;;;;5032345;28;20351;-73
2023/03/12 04:53:31;;;;;;;5.00;1.88;;;2.80;94.40;;;;;;5032680;28;20100;-73
2023/03/12 04:55:56;;;;;;;3.60;1.77;;;2.80;94.30;;;;;;5031223;28;20062;-73
2023/03/12 04:58:22;;;;;;;6.20;1.67;;;2.80;94.30;;;;;;5031402;28;20403;-72
2023/03/12 05:00:49;;;;;;;6.97;1.73;;;2.80;94.30;;;;;;5032292;28;20116;-71
2023/03/12 05:03:15;;;;;;;5.53;1.90;;;2.80;94.30;;;;;;5032193;28;20053;-71
2023/03/12 05:05:41;;;;;;;6.95;2.30;;;2.70;94.40;;;;;;5031477;28;20025;-71
2023/03/12 05:08:06;;;;;;;5.10;2.08;;;2.70;94.40;;;;;;5031911;28;20049;-71
2023/03/12 05:10:32;;;;;;;3.60;2.03;;;2.80;94.30;;;;;;5031827;28;20037;-71
2023/03/12 05:12:58;;;;;;;7.05;2.17;;;2.80;94.20;;;;;;5031821;28;20467;-71
2023/03/12 05:15:24;;;;;;;6.38;1.92;;;2.70;94.30;;;;;;5031524;28;20095;-72
2023/03/12 05:17:50;;;;;;;6.53;2.08;;;2.70;94.40;;;;;;5032108;28;20022;-71
2023/03/12 05:20:19;;;;;;;3.33;1.70;;;2.80;94.30;;;;;;5031623;28;20029;-70
2023/03/12 05:22:44;;;;;;;4.93;2.15;;;2.80;94.10;;;;;;5031659;28;20057;-70
2023/03/12 05:25:10;;;;;;;7.50;1.50;;;2.80;94.20;;;;;;5031491;28;20419;-71
2023/03/12 05:27:36;;;;;;;5.30;1.88;;;2.80;94.20;;;;;;5031466;28;20483;-72
2023/03/12 05:30:03;;;;;;;3.15;1.80;;;2.80;94.00;;;;;;5031196;28;20081;-70
2023/03/12 05:32:29;;;;;;;3.65;1.80;;;2.80;94.00;;;;;;5032164;28;20022;-72
2023/03/12 05:34:55;;;;;;;4.43;1.90;;;2.90;94.10;;;;;;5030475;28;20391;-71
2023/03/12 05:37:20;;;;;;;6.65;1.98;;;2.80;94.00;;;;;;5031478;28;20231;-71
2023/03/12 05:39:46;;;;;;;5.13;1.70;;;2.80;94.10;;;;;;5031215;28;20044;-71
2023/03/12 05:42:13;;;;;;;5.90;1.75;;;2.80;94.00;;;;;;5030439;28;20026;-71
2023/03/12 05:44:39;;;;;;;4.68;2.05;;;2.90;94.00;;;;;;5031820;28;20036;-72
2023/03/12 05:47:05;;;;;;;5.15;1.70;;;2.90;94.10;;;;;;5030236;28;20030;-71
2023/03/12 05:49:31;;;;;;;4.85;1.77;;;2.90;94.00;;;;;;5030164;28;20472;-72
2023/03/12 05:51:57;;;;;;;4.32;2.17;;;2.90;94.10;;;;;;5031002;28;20040;-70
2023/03/12 05:54:23;;;;;;;4.68;2.30;;;2.90;94.00;;;;;;5030212;28;20022;-71
2023/03/12 05:56:49;;;;;;;4.82;1.63;;;3.00;94.00;;;;;;5031284;28;20456;-70
2023/03/12 05:59:14;;;;;;;10.30;1.98;;;2.90;94.00;;;;;;5031168;28;20036;-70
2023/03/12 06:01:41;;;;;;;10.25;2.30;;;2.90;94.00;;;;;;5031221;28;20448;-70
2023/03/12 06:04:06;;;;;;;8.55;2.05;;;3.00;93.80;;;;;;5030917;28;20477;-70
2023/03/12 06:06:34;;;;;;;7.85;2.58;;;3.00;93.80;;;;;;5030812;28;20128;-70
2023/03/12 06:09:00;;;;;;;6.45;2.08;;;3.00;93.90;;;;;;5030740;28;20419;-70
2023/03/12 06:11:26;;;;;;;8.32;2.28;;;3.00;93.90;;;;;;5030014;28;20021;-71
2023/03/12 06:13:52;;;;;;;6.35;1.77;;;3.00;93.90;;;;;;5030629;28;20037;-70
2023/03/12 06:16:21;;;;;;;3.05;1.50;;;3.00;93.90;;;;;;5030474;28;20037;-70
2023/03/12 06:18:47;;;;;;;3.08;1.83;;;3.00;93.90;;;;;;5030573;28;20064;-70
2023/03/12 06:21:24;;;;;;;4.50;2.20;;;3.10;93.90;;;;;;5029578;28;20045;-71
2023/03/12 06:23:51;;;;;;;6.45;1.83;;;3.10;93.80;;;;;;5030958;28;20021;-71
2023/03/12 06:26:18;;;;;;;7.50;2.00;;;3.20;93.80;;;;;;5029419;28;20029;-69
2023/03/12 06:28:45;;;;;;;9.63;2.25;;;3.10;93.80;;;;;;5028952;28;20167;-69
2023/03/12 06:31:11;;;;;;;3.63;1.48;;;3.10;93.80;;;;;;5030334;28;20054;-70
2023/03/12 06:33:37;;;;;;;4.88;1.70;;;3.20;93.80;;;;;;5030380;28;20111;-71
2023/03/12 06:36:04;;;;;;;4.03;1.83;;;3.20;93.70;;;;;;5030341;28;20076;-69
2023/03/12 06:38:31;;;;;;;4.13;1.83;;;3.30;93.60;;;;;;5030953;28;20017;-70
2023/03/12 06:40:59;;;;;;;4.68;2.05;;;3.50;93.50;;;;;;5029341;28;20344;-71
2023/03/12 06:43:27;;;;;;;4.35;2.03;;;3.40;93.30;;;;;;5030232;28;20042;-69
2023/03/12 06:45:53;;;;;;;;;;;3.60;93.50;;;;;;5030844;28;20038;-69
2023/03/12 06:48:19;;;;;;;4.22;1.50;;;3.40;93.30;;;;;;5030235;28;20107;-68
2023/03/12 06:50:45;;;;;;;3.22;1.88;;;3.40;93.30;;;;;;5030852;28;20051;-69
2023/03/12 06:53:11;;;;;;;3.75;2.15;;;3.60;93.30;;;;;;5029221;28;20117;-69
2023/03/12 06:55:36;;;;;;;3.88;1.85;;;3.50;93.30;;;;;;5030345;28;20037;-70
2023/03/12 06:58:03;;;;;;;4.45;1.92;;;3.60;93.20;;;;;;5030082;28;20063;-70
2023/03/12 07:00:29;;;;;;;3.60;1.67;;;3.60;93.00;;;;;;5030318;28;20375;-69
2023/03/12 07:02:55;;;;;;;6.22;1.80;;;3.60;92.90;;;;;;5030563;28;20036;-69
2023/03/12 07:05:22;;;;;;;5.93;2.40;;;3.70;92.90;;;;;;5030619;28;20233;-71
2023/03/12 07:07:48;;;;;;;6.90;2.22;;;3.80;92.70;;;;;;5030221;28;20030;-71
2023/03/12 07:10:14;;;;;;;8.00;3.05;;;3.90;92.60;;;;;;5030171;28;20313;-73
2023/03/12 07:12:40;;;;;;;9.18;3.80;;;3.80;92.40;;;;;;5029327;28;20437;-69
2023/03/12 07:15:06;;;;;;;8.10;3.33;;;3.90;92.50;;;;;;5030292;28;20482;-69
2023/03/12 07:17:32;;;;;;;4.68;2.55;;;3.90;92.30;;;;;;5030644;28;20036;-70
2023/03/12 07:19:57;;;;;;;11.18;3.20;;;4.00;92.40;;;;;;5030221;28;20109;-71
2023/03/12 07:22:23;;;;;;;9.00;3.45;;;4.10;92.30;;;;;;5030457;28;20041;-72
2023/03/12 07:24:50;;;;;;;11.23;3.45;;;4.10;92.20;;;;;;5030440;28;20053;-72
2023/03/12 07:27:16;;;;;;;5.45;2.38;;;4.10;92.20;;;;;;5030156;28;20539;-71
2023/03/12 07:29:41;;;;;;;10.07;1.77;;;4.20;92.00;;;;;;5030463;28;20344;-70
2023/03/12 07:32:07;;;;;;;7.45;1.95;;;4.30;92.10;;;;;;5029177;28;20136;-69
2023/03/12 07:34:33;;;;;;;7.53;2.20;;;4.30;91.90;;;;;;5030561;28;20037;-73
2023/03/12 07:36:59;;;;;;;6.18;1.92;;;4.40;92.00;;;;;;5029137;28;20053;-70
2023/03/12 07:39:25;;;;;;;3.95;1.80;;;4.50;91.80;;;;;;5029236;28;20496;-70
2023/03/12 07:41:50;;;;;;;6.65;2.00;;;4.60;92.00;;;;;;5033252;28;20076;-71
2023/03/12 07:44:16;;;;;;;5.20;1.75;;;4.60;91.90;;;;;;5033850;28;20467;-69
2023/03/12 07:46:42;;;;;;;8.52;1.80;;;4.70;91.60;;;;;;5032771;28;20030;-70
2023/03/12 07:49:08;;;;;;;3.25;1.55;;;4.70;91.40;;;;;;5033904;28;20038;-70
2023/03/12 07:51:34;;;;;;;4.07;1.83;;;4.70;91.50;;;;;;5033800;28;20407;-71
2023/03/12 07:53:59;;;;;;;4.85;1.70;;;4.80;91.40;;;;;;5032399;28;20017;-71
2023/03/12 07:56:25;;;;;;;2.85;1.80;;;4.80;91.40;;;;;;5033825;28;20407;-71
2023/03/12 07:58:51;;;;;;;5.90;1.70;;;4.80;91.20;;;;;;5032303;28;20088;-70
2023/03/12 08:01:16;;;;;;;5.13;1.80;;;4.90;91.20;;;;;;5033070;28;20374;-71
2023/03/12 08:03:42;;;;;;;4.22;1.73;;;5.00;90.90;;;;;;5033602;28;20033;-70
2023/03/12 08:06:08;;;;;;;11.63;3.20;;;5.10;91.00;;;;;;5033168;28;20056;-70
2023/03/12 08:08:35;;;;;;;5.57;2.88;;;5.20;90.80;;;;;;5032523;28;20057;-70
2023/03/12 08:11:02;;;;;;;5.60;2.85;;;5.20;90.80;;;;;;5033534;28;20120;-70
2023/03/12 08:13:28;;;;;;;2.30;1.27;;;5.10;90.70;;;;;;5032019;28;20033;-69
2023/03/12 08:15:54;;;;;;;6.05;2.05;;;5.20;91.10;;;;;;5033229;28;20144;-68
2023/03/12 08:18:20;;;;;;;5.55;1.85;;;5.20;90.80;;;;;;5033128;28;20041;-69
2023/03/12 08:20:52;;;;;;;8.52;2.22;;;5.30;90.80;;;;;;5032484;28;20022;-69
2023/03/12 08:23:18;;;;;;;6.00;2.33;;;5.40;91.00;;;;;;5032744;28;20383;-70
2023/03/12 08:25:49;;;;;;;6.78;1.80;;;5.40;90.70;;;;;;5031787;28;20033;-71
2023/03/12 08:28:16;;;;;;;7.50;1.50;;;5.40;90.60;;;;;;5032850;28;20038;-70
2023/03/12 08:30:53;;;;;;;5.20;1.65;;;5.50;90.80;;;;;;5031638;28;20034;-68
2023/03/12 08:33:19;;;;;;;11.75;2.22;;;5.40;90.50;;;;;;5031891;28;20072;-69
2023/03/12 08:35:46;;;;;;;7.38;1.77;;;5.40;90.60;;;;;;5031778;28;20034;-67
2023/03/12 08:38:11;;;;;;;11.10;2.33;;;5.50;90.60;;;;;;5032770;28;20567;-70
2023/03/12 08:40:38;;;;;;;4.57;1.70;;;5.50;90.40;;;;;;5032757;28;20164;-70
2023/03/12 08:43:03;;;;;;;6.88;2.08;;;5.50;90.30;;;;;;5032516;28;20037;-71
2023/03/12 08:45:29;;;;;;;5.13;2.28;;;5.50;90.40;;;;;;5032478;28;20408;-72
2023/03/12 08:47:55;;;;;;;7.93;1.70;;;5.50;90.50;;;;;;5032987;28;20401;-71
2023/03/12 08:50:21;;;;;;;9.95;2.88;;;5.50;90.40;;;;;;5032879;28;20036;-70
2023/03/12 08:52:47;;;;;;;9.15;4.50;;;5.50;90.40;;;;;;5032313;28;20380;-72
2023/03/12 08:55:13;;;;;;;8.35;2.03;;;5.50;90.30;;;;;;5031289;28;20483;-69
2023/03/12 08:57:39;;;;;;;7.13;1.83;;;5.50;90.40;;;;;;5031214;28;20041;-71
2023/03/12 09:00:10;;;;;;;7.05;1.83;;;5.60;90.60;;;;;;5032257;28;20031;-69
2023/03/12 09:02:36;;;;;;;9.82;2.13;;;5.60;90.40;;;;;;5032696;28;20163;-70
2023/03/12 09:05:03;;;;;;;4.05;1.67;;;5.70;90.20;;;;;;5032135;28;20057;-70
2023/03/12 09:07:30;;;;;;;3.38;1.25;;;5.70;90.20;;;;;;5032017;28;20033;-71
2023/03/12 09:09:56;;;;;;;7.27;1.90;;;5.60;90.00;;;;;;5031953;28;20038;-68
2023/03/12 09:12:22;;;;;;;2.95;1.20;;;5.60;90.00;;;;;;5031721;28;20368;-70
2023/03/12 09:14:49;;;;;;;7.47;1.63;;;5.70;89.80;;;;;;5032437;28;20025;-70
2023/03/12 09:17:15;;;;;;;3.35;1.60;;;5.60;89.60;;;;;;5032205;28;20121;-71
2023/03/12 09:19:40;;;;;;;7.60;1.77;;;5.70;89.70;;;;;;5032068;28;20122;-72
2023/03/12 09:22:06;;;;;;;7.88;1.77;;;5.80;89.50;;;;;;5031817;28;20517;-71
2023/03/12 09:24:32;;;;;;;10.45;2.10;;;5.90;89.30;;;;;;5031799;28;20138;-71
2023/03/12 09:26:58;;;;;;;4.90;1.65;;;5.90;89.40;;;;;;5032160;28;20264;-72
2023/03/12 09:29:24;;;;;;;6.85;1.42;;;5.90;89.10;;;;;;5030256;28;20091;-70
2023/03/12 09:31:50;;;;;;;5.10;1.50;;;5.90;88.60;;;;;;5030223;28;20116;-71
2023/03/12 09:34:16;;;;;;;5.63;1.63;;;5.90;89.10;;;;;;5031283;28;20101;-70
2023/03/12 09:36:42;;;;;;;4.22;1.67;;;6.00;89.50;;;;;;5031569;28;20037;-70
2023/03/12 09:39:08;;;;;;;6.22;2.25;;;6.20;89.20;;;;;;5031234;28;20027;-70
2023/03/12 09:41:40;;;;;;;3.55;1.85;;;6.30;89.10;;;;;;5031714;28;20041;-70
2023/03/12 09:44:38;;;;;;;10.85;1.77;;;6.50;89.30;;;;;;5031175;28;20407;-69
2023/03/12 09:47:46;;;;;;;4.03;1.42;;;6.70;88.70;;;;;;5031241;28;20034;-70
2023/03/12 09:50:27;;;;;;;5.35;1.50;;;6.80;87.70;;;;;;5030055;28;20064;-70
2023/03/12 09:53:00;;;;;;;4.00;1.70;;;7.00;88.00;;;;;;5031125;28;20071;-69
2023/03/12 09:55:30;;;;;;;8.60;2.25;;;7.10;87.40;;;;;;5030933;28;20458;-71
2023/03/12 09:57:56;;;;;;;4.53;1.40;;;7.20;87.30;;;;;;5030904;28;20088;-71
2023/03/12 10:00:27;;;;;;;3.25;1.30;;;7.50;87.20;;;;;;5030692;28;20031;-70
2023/03/12 10:03:11;;;;;;;5.22;1.92;;;7.90;86.70;;;;;;5030797;28;20022;-71
2023/03/12 10:05:55;;;;;;;6.45;2.60;;;7.90;85.60;;;;;;5030857;28;20344;-71
2023/03/12 10:08:35;;;;;;;7.53;2.55;;;7.90;84.80;;;;;;5030682;28;20087;-70
2023/03/12 10:11:43;;;;;;;10.68;3.33;;;8.30;84.60;;;;;;5029980;28;20457;-71
2023/03/12 10:14:47;;;;;;;10.93;1.70;;;8.40;83.30;;;;;;5030285;28;20048;-71
2023/03/12 10:17:31;;;;;;;10.95;1.88;;;8.50;83.30;;;;;;5014537;28;20129;-70
2023/03/12 10:20:36;;;;;;;4.65;1.70;;;8.60;82.80;;;;;;5027142;28;20041;-69
2023/03/12 10:23:44;;;;;;;14.07;2.08;;;8.50;82.40;;;;;;5030496;28;20112;-71
2023/03/12 10:26:34;;;;;;;8.82;1.80;;;8.40;81.60;;;;;;5027959;28;20468;-69
2023/03/12 10:29:12;;;;;;;4.85;1.77;;;8.20;82.10;;;;;;5030426;28;20056;-69
2023/03/12 10:31:41;;;;;;;;;;;8.10;82.10;;;;;;5031009;28;20479;-69
2023/03/12 10:34:36;;;;;;;8.20;1.60;;;7.80;82.40;;;;;;5030373;28;19992;-69
2023/03/12 10:37:31;;;;;;;5.85;1.60;;;7.70;83.00;;;;;;5030209;28;20067;-71
2023/03/12 10:39:59;;;;;;;7.28;1.58;;;7.50;83.30;;;;;;5030608;28;20038;-69
2023/03/12 10:42:28;;;;;;;5.32;1.60;;;7.30;83.10;;;;;;5030190;28;20124;-70
2023/03/12 10:45:00;;;;;;;5.53;1.75;;;7.10;83.30;;;;;;5029645;28;20091;-69
2023/03/12 10:47:42;;;;;;;6.43;1.67;;;7.00;84.40;;;;;;5030333;28;20052;-70
2023/03/12 10:50:14;;;;;;;5.25;1.63;;;7.00;85.30;;;;;;5030318;28;20026;-70
2023/03/12 10:52:40;;;;;;;7.75;1.77;;;6.90;85.60;;;;;;5030261;28;20052;-70
2023/03/12 10:55:28;;;;;;;6.47;1.80;;;6.80;86.40;;;;;;5030232;28;20056;-69
2023/03/12 10:57:54;;;;;;;;;;;6.70;87.50;;;;;;5030529;28;20372;-69
2023/03/12 11:00:26;;;;;;;6.15;1.58;;;6.60;88.80;;;;;;5029023;28;20382;-69
2023/03/12 11:03:02;;;;;;;3.33;1.38;;;6.50;89.60;;;;;;5030995;28;20026;-68
2023/03/12 11:05:30;;;;;;;8.45;1.70;;;6.60;90.00;;;;;;5030511;28;20040;-69
2023/03/12 11:07:58;;;;;;;7.60;1.75;;;6.50;90.20;;;;;;5030190;28;20030;-68
2023/03/12 11:10:42;;;;;;;4.75;1.30;;;6.50;90.50;;;;;;5029101;28;20037;-69
2023/03/12 11:13:38;;;;;;;9.05;1.80;;;6.40;90.90;;;;;;5029896;28;20044;-69
2023/03/12 11:16:24;;;;;;;4.43;1.83;;;6.40;91.30;;;;;;5033002;28;20041;-68
2023/03/12 11:18:58;;;;;;;8.67;1.80;;;6.30;91.50;;;;;;5034091;28;20056;-69
2023/03/12 11:21:24;;;;;;;7.88;2.25;;;6.20;92.00;;;;;;5034005;28;20255;-68
2023/03/12 11:23:56;;;;;;;5.93;1.77;;;6.20;92.30;;;;;;5034503;28;20317;-69
2023/03/12 11:26:50;;;;;;;6.38;1.90;;;6.20;92.50;;;;;;5032698;28;20033;-68
2023/03/12 11:29:24;;;;;;;8.63;3.67;;;6.00;93.00;;;;;;5033755;28;20116;-67
2023/03/12 11:32:10;;;;;;;5.93;1.98;;;6.00;93.30;;;;;;5034075;28;20355;-70
2023/03/12 11:34:38;;;;;;;7.45;2.22;;;6.00;93.60;;;;;;5030068;28;20049;-71
2023/03/12 11:37:16;;;;;;;3.53;1.48;;;5.90;93.80;;;;;;5032818;28;20049;-71
2023/03/12 11:39:57;;;;;;;5.82;1.85;;;5.90;94.10;;;;;;5033436;28;20045;-70
2023/03/12 11:42:35;;;;;;;6.78;1.85;;;5.90;94.30;;;;;;5033640;28;20033;-71
2023/03/12 11:45:16;;;;;;;8.65;1.83;;;5.80;94.60;;;;;;5033514;28;20060;-71
2023/03/12 11:48:12;;;;;;;5.20;1.95;;;5.90;94.80;;;;;;5034005;28;20109;-71
2023/03/12 11:50:56;;;;;;;6.97;1.70;;;5.90;95.20;;;;;;5028704;28;20039;-72
2023/03/12 11:53:56;;;;;;;3.75;1.63;;;5.80;95.80;;;;;;5032396;28;20030;-71
2023/03/12 11:56:43;;;;;;;6.50;2.45;;;5.90;96.20;;;;;;5014727;28;20041;-72
2023/03/12 11:59:22;;;;;;;8.55;2.00;;;5.90;96.10;;;;;;5033655;28;20048;-72
2023/03/12 12:02:09;;;;;;;13.05;2.70;;;5.90;96.20;;;;;;5033273;28;20099;-71
2023/03/12 12:04:49;;;;;;;9.43;2.17;;;5.80;96.40;;;;;;5032096;28;20133;-71
2023/03/12 12:07:58;;;;;;;6.22;2.38;;;5.90;96.70;;;;;;5032079;28;20121;-72
2023/03/12 12:10:55;;;;;;;6.22;2.22;;;5.80;96.70;;;;;;5032049;28;20037;-72
2023/03/12 12:13:28;;;;;;;4.28;2.10;;;5.70;97.20;;;;;;5033240;28;20026;-72
2023/03/12 12:16:15;;;;;;;7.60;2.40;;;5.70;97.40;;;;;;5033137;28;20029;-73
2023/03/12 12:19:19;;;;;;;8.80;2.00;;;5.70;97.80;;;;;;5033107;28;20040;-73
2023/03/12 12:22:21;;;;;;;8.80;2.08;;;5.60;98.20;;;;;;5031210;28;20352;-73
2023/03/12 12:25:05;;;;;;;9.10;2.30;;;5.50;98.90;;;;;;4993873;28;20464;-71
2023/03/12 12:27:42;;;;;;;5.10;2.15;;;5.50;99.60;;;;;;5015410;28;20036;-70
2023/03/12 12:30:16;;;;;;;8.30;2.38;;;5.60;99.80;;;;;;5031882;28;20033;-71
2023/03/12 12:32:53;;;;;;;11.80;2.53;;;5.50;99.90;;;;;;5033341;28;20014;-71
2023/03/12 12:35:35;;;;;;;6.55;1.90;;;5.50;99.90;;;;;;5032445;28;20033;-70
2023/03/12 12:38:29;;;;;;;10.57;3.05;;;5.50;99.90;;;;;;5033027;28;20045;-70
2023/03/12 12:41:11;;;;;;;5.72;2.45;;;5.50;99.90;;;;;;5032780;28;20047;-70
2023/03/12 12:43:39;;;;;;;6.97;2.70;;;5.50;99.90;;;;;;5032392;28;20118;-73
2023/03/12 12:46:11;;;;;;;;;;;5.60;99.90;;;;;;5031967;28;20038;-71
2023/03/12 12:48:49;;;;;;;7.85;2.72;;;5.60;99.90;;;;;;5032609;28;20335;-72
2023/03/12 12:51:18;;;;;;;8.30;3.67;;;5.60;99.90;;;;;;5032513;28;20033;-69
2023/03/12 12:53:58;;;;;;;8.20;2.95;;;5.70;99.90;;;;;;5032982;28;20029;-71
2023/03/12 12:56:32;;;;;;;9.60;2.60;;;5.70;99.90;;;;;;5031334;28;20436;-70
2023/03/12 12:59:04;;;;;;;5.70;2.35;;;5.70;99.90;;;;;;5032475;28;20030;-71
2023/03/12 13:01:32;;;;;;;8.85;2.47;;;5.70;99.90;;;;;;5031016;28;20103;-72
2023/03/12 13:04:19;;;;;;;6.50;2.13;;;5.70;99.90;;;;;;5032189;28;20120;-70
2023/03/12 13:06:59;;;;;;;5.93;2.25;;;5.90;99.90;;;;;;5032022;28;20567;-70
2023/03/12 13:09:36;;;;;;;8.32;2.63;;;5.60;99.90;;;;;;5031921;28;20112;-69
2023/03/12 13:12:33;;;;;;;6.68;2.17;;;5.50;99.90;;;;;;5030862;28;20017;-70
2023/03/12 13:15:01;;;;;;;5.72;2.78;;;5.50;99.90;;;;;;5031737;28;20025;-69